createdAt,value
2023-05-17T00:00:39.073Z,13.73
2023-05-17T00:05:41.304Z,11.85
2023-05-17T00:10:43.713Z,15.07
2023-05-17T00:15:45.889Z,19.17
2023-05-17T00:20:48.146Z,13.50
2023-05-17T00:25:50.568Z,20.30
2023-05-17T00:30:52.810Z,17.63
2023-05-17T00:35:55.055Z,17.88
2023-05-17T00:40:57.331Z,15.02
2023-05-17T00:45:59.550Z,20.38
2023-05-17T00:51:01.957Z,16.02
2023-05-17T00:56:04.864Z,19.92
2023-05-17T01:01:07.421Z,15.50
2023-05-17T01:06:09.787Z,17.13
2023-05-17T01:11:35.895Z,19.95
2023-05-17T01:16:44.935Z,14.55
2023-05-17T01:22:18.036Z,14.52
2023-05-17T01:27:22.436Z,15.60
2023-05-17T01:32:26.569Z,20.30
2023-05-17T01:37:28.832Z,22.85
2023-05-17T01:42:33.743Z,18.20
2023-05-17T01:48:07.472Z,18.77
2023-05-17T01:53:17.706Z,14.60
2023-05-17T01:58:23.193Z,20.90
2023-05-17T02:03:28.148Z,16.55
2023-05-17T02:08:30.371Z,12.98
2023-05-17T02:13:32.599Z,14.20
2023-05-17T02:18:36.121Z,24.13
2023-05-17T02:23:38.813Z,15.90
2023-05-17T02:28:41.413Z,22.20
2023-05-17T02:33:43.785Z,15.38
2023-05-17T02:38:46.065Z,24.33
2023-05-17T02:43:48.352Z,21.23
2023-05-17T02:48:50.697Z,17.13
2023-05-17T02:53:52.904Z,21.05
2023-05-17T02:58:57.977Z,18.80
2023-05-17T03:04:00.214Z,16.27
2023-05-17T03:09:02.454Z,26.83
2023-05-17T03:14:04.699Z,26.23
2023-05-17T03:19:07.091Z,14.70
2023-05-17T03:24:09.667Z,15.32
2023-05-17T03:29:12.202Z,15.10
2023-05-17T03:34:14.346Z,14.90
2023-05-17T03:39:16.668Z,18.92
2023-05-17T03:44:18.908Z,21.58
2023-05-17T03:49:21.398Z,17.13
2023-05-17T03:54:23.750Z,18.35
2023-05-17T03:59:26.026Z,23.08
2023-05-17T04:04:28.390Z,23.88
2023-05-17T04:09:32.470Z,22.38
2023-05-17T04:14:34.705Z,22.20
2023-05-17T04:19:36.934Z,17.38
2023-05-17T04:24:39.171Z,17.17
2023-05-17T04:29:41.741Z,15.20
2023-05-17T04:34:44.062Z,20.05
2023-05-17T04:39:46.553Z,18.23
2023-05-17T04:44:49.069Z,20.50
2023-05-17T04:49:52.017Z,20.23
2023-05-17T04:54:54.265Z,26.40
2023-05-17T04:59:56.526Z,20.52
2023-05-17T05:04:59.041Z,14.00
2023-05-17T05:10:01.885Z,18.92
2023-05-17T05:15:04.391Z,18.23
2023-05-17T05:20:07.578Z,12.43
2023-05-17T05:25:10.288Z,14.27
2023-05-17T05:30:13.275Z,20.80
2023-05-17T05:35:15.618Z,14.70
2023-05-17T05:40:17.898Z,14.98
2023-05-17T05:45:20.398Z,13.40
2023-05-17T05:50:22.730Z,16.55
2023-05-17T05:55:25.326Z,12.02
2023-05-17T06:00:27.940Z,21.58
2023-05-17T06:05:30.496Z,19.40
2023-05-17T06:10:33.257Z,19.42
2023-05-17T06:15:35.549Z,14.43
2023-05-17T06:20:37.836Z,18.48
2023-05-17T06:25:40.873Z,13.32
2023-05-17T06:30:43.159Z,20.02
2023-05-17T06:35:55.532Z,17.83
2023-05-17T06:41:01.894Z,14.25
2023-05-17T06:46:04.890Z,10.95
2023-05-17T06:51:08.253Z,14.45
2023-05-17T06:56:10.509Z,14.43
2023-05-17T07:01:14.065Z,20.23
2023-05-17T07:06:16.465Z,20.42
2023-05-17T07:11:18.748Z,12.38
2023-05-17T07:16:21.084Z,11.13
2023-05-17T07:21:26.130Z,14.55
2023-05-17T07:26:28.407Z,10.85
2023-05-17T07:31:30.609Z,9.10
2023-05-17T07:36:33.086Z,13.95
2023-05-17T07:41:35.871Z,16.38
2023-05-17T07:46:38.902Z,9.73
2023-05-17T07:51:41.504Z,12.60
2023-05-17T07:56:43.816Z,6.35
2023-05-17T08:01:46.147Z,8.27
2023-05-17T08:06:48.939Z,6.05
2023-05-17T08:11:51.961Z,7.72
2023-05-17T08:16:54.270Z,5.68
2023-05-17T08:21:56.617Z,6.15
2023-05-17T08:26:59.036Z,7.82
2023-05-17T08:32:01.670Z,7.20
2023-05-17T08:37:04.055Z,5.38
2023-05-17T08:42:09.216Z,4.50
2023-05-17T08:47:13.061Z,6.50
2023-05-17T08:52:16.099Z,8.18
2023-05-17T08:57:18.651Z,3.72
2023-05-17T09:02:22.491Z,8.55
2023-05-17T09:07:25.228Z,6.47
2023-05-17T09:12:27.482Z,9.02
2023-05-17T09:17:29.756Z,4.00
2023-05-17T09:22:32.350Z,11.30
2023-05-17T09:27:34.703Z,4.60
2023-05-17T09:32:43.486Z,3.85
2023-05-17T09:37:47.584Z,7.00
2023-05-17T09:42:50.185Z,8.10
2023-05-17T09:47:53.096Z,4.88
2023-05-17T09:52:55.564Z,5.90
2023-05-17T09:58:04.465Z,2.95
2023-05-17T10:08:11.485Z,3.28
2023-05-17T10:13:16.458Z,3.47
2023-05-17T10:18:19.203Z,4.15
2023-05-17T10:23:22.939Z,6.13
2023-05-17T10:28:27.408Z,3.95
2023-05-17T10:33:32.699Z,3.05
2023-05-17T10:38:41.663Z,4.65
2023-05-17T10:43:46.923Z,4.57
2023-05-17T10:48:53.349Z,3.53
2023-05-17T10:54:18.980Z,2.60
2023-05-17T10:59:29.953Z,5.53
2023-05-17T11:04:43.716Z,2.17
2023-05-17T11:09:49.842Z,2.15
2023-05-17T11:14:56.060Z,3.47
2023-05-17T11:20:07.601Z,2.13
2023-05-17T11:25:14.666Z,2.45
2023-05-17T11:30:22.813Z,2.22
2023-05-17T11:35:29.151Z,8.52
2023-05-17T11:40:32.714Z,4.35
2023-05-17T11:45:53.511Z,1.15
2023-05-17T11:50:58.036Z,2.70
2023-05-17T11:56:07.482Z,2.05
2023-05-17T12:01:09.842Z,3.95
2023-05-17T12:06:17.738Z,1.83
2023-05-17T12:11:22.172Z,1.73
2023-05-17T12:16:25.822Z,2.65
2023-05-17T12:21:28.257Z,3.83
2023-05-17T12:26:31.017Z,2.15
2023-05-17T12:31:39.478Z,3.08
2023-05-17T12:36:42.388Z,3.88
2023-05-17T12:41:45.103Z,11.63
2023-05-17T12:46:54.214Z,6.18
2023-05-17T12:51:56.720Z,6.05
2023-05-17T12:56:59.110Z,6.65
2023-05-17T13:02:02.076Z,5.50
2023-05-17T13:07:05.978Z,6.68
2023-05-17T13:12:08.653Z,4.80
2023-05-17T13:17:25.512Z,4.45
2023-05-17T13:22:28.300Z,2.47
2023-05-17T13:27:30.693Z,5.90
2023-05-17T13:32:33.206Z,2.33
2023-05-17T13:37:36.775Z,1.75
2023-05-17T13:42:39.137Z,1.85
2023-05-17T13:47:41.878Z,0.82
2023-05-17T13:52:44.913Z,3.22
2023-05-17T13:57:47.665Z,1.35
2023-05-17T14:02:50.245Z,2.28
2023-05-17T14:07:53.109Z,1.70
2023-05-17T14:12:55.331Z,1.33
2023-05-17T14:17:57.660Z,1.40
2023-05-17T14:23:00.959Z,1.15
2023-05-17T14:28:03.462Z,3.88
2023-05-17T14:33:05.800Z,0.63
2023-05-17T14:38:08.216Z,0.90
2023-05-17T14:43:10.658Z,1.52
2023-05-17T14:48:13.145Z,2.13
2023-05-17T14:53:15.572Z,1.15
2023-05-17T14:58:17.997Z,0.40
2023-05-17T15:03:22.308Z,1.58
2023-05-17T15:08:25.384Z,3.00
2023-05-17T15:13:27.827Z,2.03
2023-05-17T15:18:30.218Z,0.93
2023-05-17T15:23:32.706Z,0.88
2023-05-17T15:28:35.118Z,1.40
2023-05-17T15:33:39.901Z,0.47
2023-05-17T15:38:42.662Z,1.50
2023-05-17T15:43:45.297Z,1.48
2023-05-17T15:48:47.713Z,1.70
2023-05-17T15:53:50.263Z,1.05
2023-05-17T15:58:53.040Z,1.20
2023-05-17T16:03:55.370Z,9.63
2023-05-17T16:08:57.724Z,4.30
2023-05-17T16:14:00.188Z,1.02
2023-05-17T16:19:04.873Z,1.45
2023-05-17T16:24:07.604Z,0.65
2023-05-17T16:29:09.887Z,2.20
2023-05-17T16:34:12.252Z,3.00
2023-05-17T16:39:14.634Z,2.97
2023-05-17T16:44:17.106Z,3.08
2023-05-17T16:49:19.685Z,2.95
2023-05-17T16:54:22.042Z,1.23
2023-05-17T16:59:24.456Z,1.80
2023-05-17T17:04:27.001Z,2.42
2023-05-17T17:09:29.404Z,2.95
2023-05-17T17:14:32.443Z,4.18
2023-05-17T17:19:34.856Z,4.05
2023-05-17T17:24:37.135Z,2.88
2023-05-17T17:29:39.468Z,4.78
2023-05-17T17:34:41.725Z,2.45
2023-05-17T17:39:44.197Z,12.32
2023-05-17T17:44:46.773Z,9.98
2023-05-17T17:49:49.215Z,4.55
2023-05-17T17:54:51.758Z,5.97
2023-05-17T17:59:55.083Z,3.95
2023-05-17T18:04:57.658Z,3.45
2023-05-17T18:10:02.188Z,5.68
2023-05-17T18:15:06.490Z,2.58
2023-05-17T18:20:09.264Z,2.22
2023-05-17T18:25:11.608Z,6.05
2023-05-17T18:30:14.390Z,4.85
2023-05-17T18:35:17.806Z,3.38
2023-05-17T18:40:20.271Z,9.27
2023-05-17T18:45:22.814Z,10.52
2023-05-17T18:50:25.251Z,11.75
2023-05-17T18:55:27.789Z,6.20
2023-05-17T19:00:30.572Z,3.97
2023-05-17T19:05:33.203Z,6.82
2023-05-17T19:10:35.596Z,8.38
2023-05-17T19:15:38.045Z,10.15
2023-05-17T19:20:40.526Z,8.48
2023-05-17T19:25:42.967Z,6.82
2023-05-17T19:30:45.346Z,2.70
2023-05-17T19:35:47.853Z,3.67
2023-05-17T19:40:50.429Z,2.75
2023-05-17T19:45:52.886Z,5.57
2023-05-17T19:50:56.729Z,7.40
2023-05-17T19:56:06.359Z,2.90
2023-05-17T20:06:14.621Z,2.10
2023-05-17T20:11:17.137Z,3.08
2023-05-17T20:16:19.580Z,1.60
2023-05-17T20:21:23.315Z,4.20
2023-05-17T20:26:27.403Z,1.85
2023-05-17T20:31:29.808Z,2.13
2023-05-17T20:36:32.665Z,4.00
2023-05-17T20:41:35.002Z,1.13
2023-05-17T20:46:37.446Z,3.20
2023-05-17T20:51:40.262Z,3.30
2023-05-17T20:56:42.810Z,7.18
2023-05-17T21:01:45.248Z,8.95
2023-05-17T21:06:47.773Z,5.07
2023-05-17T21:11:52.467Z,5.05
2023-05-17T21:16:56.509Z,5.95
2023-05-17T21:21:58.917Z,7.05
2023-05-17T21:27:03.496Z,3.05
2023-05-17T21:32:06.436Z,3.92
2023-05-17T21:37:08.817Z,3.80
2023-05-17T21:42:11.463Z,4.35
2023-05-17T21:47:13.966Z,1.33
2023-05-17T21:52:16.582Z,1.65
2023-05-17T21:57:21.555Z,1.70
2023-05-17T22:02:24.089Z,1.20
2023-05-17T22:07:26.721Z,1.55
2023-05-17T22:12:29.198Z,4.85
2023-05-17T22:17:46.913Z,4.68
2023-05-17T22:22:50.770Z,2.37
2023-05-17T22:27:53.179Z,6.20
2023-05-17T22:32:57.604Z,1.52
2023-05-17T22:38:00.201Z,2.10
2023-05-17T22:43:02.626Z,6.55
2023-05-17T22:48:06.131Z,9.57
2023-05-17T22:53:08.560Z,4.40
2023-05-17T22:58:11.227Z,1.85
2023-05-17T23:03:14.161Z,5.53
2023-05-17T23:08:16.498Z,5.43
2023-05-17T23:13:19.162Z,1.45
2023-05-17T23:18:21.686Z,1.80
2023-05-17T23:23:24.481Z,6.68
2023-05-17T23:28:27.136Z,1.30
2023-05-17T23:33:32.438Z,2.03
2023-05-17T23:38:34.802Z,1.60
2023-05-17T23:43:37.124Z,2.35
2023-05-17T23:48:39.684Z,2.50
2023-05-17T23:53:42.669Z,1.33
2023-05-17T23:58:45.951Z,1.33
